Sterling, IL

9:10 PM CDT on July 26, 2016 (GMT -0500)
SaukValleyWeather.com (2 Miles N Sterling) | | Change Station

Elev 666 ft 41.82 °N, 89.67 °W | Updated 3 seconds ago

Clear
Clear
77.8 °F
Feels Like 80 °F
N
0.0
Wind Variable Wind from ENE
Gusts 0.0 mph

Today
High -- | Low -- °F
--% Chance of Precip.
Yesterday
High -- | Low -- °F
Precip. -- in
Pressure 30.05 in
Visibility 7.0 miles
Clouds Clear
Heat Index 80 °F
Dew Point 69 °F
Humidity 75%
Rainfall 0.00 in
Snow Depth Not available.
5:47 AM 8:22 PM
Waning Gibbous, 48% visible
METAR KSQI 270156Z 00000KT 7SM CLR 23/20 A3002 RMK AO2 SLP175 T02280200 PNO $
Pressure 30.05 in
Visibility 7.0 miles
Clouds Clear
Heat Index 80 °F
Dew Point 69 °F
Humidity 75%
Rainfall 0.00 in
Snow Depth Not available.
5:47 AM 8:22 PM
Waning Gibbous, 48% visible
METAR KSQI 270156Z 00000KT 7SM CLR 23/20 A3002 RMK AO2 SLP175 T02280200 PNO $

10-Day Weather Forecast

Almanac

Astronomy

Jul. 26, 2016 Rise Set
Actual Time
Civil Twilight
Nautical Twilight
Astronomical Twilight
Moon
Length of Visible Light
Length of Day
Tomorrow will be .
, % of the Moon is Illuminated

Today's Extremes

State Highs State Lows

Community

WunderPhotos

Upload Photos

1,927,774 photos uploaded!

WunderBlog® & News

Nearby

Air Quality

  Air Quality AQ Index Pollutant
Not available.

Snow Depth

Station Depth Elevation

Earthquake Activity

City Distance Mag. Time & Date
Minimum magnitude displayed is 2.5.

Coastal Water Temperatures

Place Temperature

Stations

Nearby Weather Stations

Station Location Temp. Windchill Dew Point Humidity Wind Precip. Elev Updated Type
                   

Watches & Warnings

There are currently no watches in effect.